Time;durP1;ratioP1;P1;durP2;ratioP2;P2;SDS_P1;SDS_P2;PMS_P1;PMS_P2;Temp;Humidity;BMP_temperature;BMP_pressure;BME280_temperature;BME280_humidity;BME280_pressure;Samples;Min_cycle;Max_cycle;Signal;HPM_P1;HPM_P2
2023/05/25 00:02:39;;;;;;;7.13;6.53;;;16.60;99.90;;;;;;6276479;28;20487;-63
2023/05/25 00:05:42;;;;;;;7.00;6.43;;;16.50;99.90;;;;;;6275543;28;20983;-63
2023/05/25 00:08:47;;;;;;;6.10;5.60;;;16.50;99.90;;;;;;6274959;28;20473;-63
2023/05/25 00:11:51;;;;;;;7.87;7.10;;;16.50;99.90;;;;;;6275294;28;20986;-63
2023/05/25 00:14:55;;;;;;;8.67;6.70;;;16.40;99.90;;;;;;6275184;28;20979;-63
2023/05/25 00:17:59;;;;;;;8.03;7.00;;;16.40;99.90;;;;;;6274918;28;20474;-63
2023/05/25 00:21:05;;;;;;;7.40;6.77;;;16.40;99.90;;;;;;6274384;28;20493;-63
2023/05/25 00:24:09;;;;;;;7.87;6.73;;;16.30;99.90;;;;;;6273431;28;20481;-63
2023/05/25 00:27:12;;;;;;;9.23;7.27;;;16.30;99.90;;;;;;6275515;28;20805;-63
2023/05/25 00:30:17;;;;;;;8.23;7.50;;;16.30;99.90;;;;;;6276825;28;20482;-63
2023/05/25 00:33:20;;;;;;;7.33;6.73;;;16.30;99.90;;;;;;6275278;28;20953;-63
2023/05/25 00:36:24;;;;;;;8.23;7.43;;;16.40;99.90;;;;;;6277122;28;20999;-63
2023/05/25 00:39:28;;;;;;;7.70;7.00;;;16.40;99.90;;;;;;6277460;28;20559;-63
2023/05/25 00:42:32;;;;;;;7.77;7.07;;;16.40;99.90;;;;;;6276420;28;20555;-63
2023/05/25 00:45:36;;;;;;;9.27;8.07;;;16.40;99.90;;;;;;6274318;28;21790;-63
2023/05/25 00:48:40;;;;;;;7.33;6.73;;;16.40;99.90;;;;;;6273509;28;20476;-63
2023/05/25 00:51:45;;;;;;;9.53;7.10;;;16.40;99.90;;;;;;6276022;28;20480;-63
2023/05/25 00:54:54;;;;;;;8.73;7.70;;;16.40;99.90;;;;;;6273779;28;20462;-63
2023/05/25 00:58:00;;;;;;;7.80;6.50;;;16.40;99.90;;;;;;6276690;28;20789;-63
2023/05/25 01:01:10;;;;;;;9.83;8.07;;;16.40;99.90;;;;;;6276659;28;20556;-63
2023/05/25 01:04:15;;;;;;;6.80;6.20;;;16.40;99.90;;;;;;6276511;28;20588;-63
2023/05/25 01:07:24;;;;;;;8.10;7.03;;;16.40;99.90;;;;;;6276418;28;20471;-63
2023/05/25 01:10:30;;;;;;;8.50;7.70;;;16.40;99.90;;;;;;6276216;28;20920;-63
2023/05/25 01:13:36;;;;;;;8.93;8.13;;;16.40;99.90;;;;;;6276225;28;20806;-63
2023/05/25 01:16:42;;;;;;;8.87;7.90;;;16.40;99.90;;;;;;6276177;28;20968;-63
2023/05/25 01:19:46;;;;;;;7.60;6.90;;;16.40;99.90;;;;;;6267262;28;20482;-63
2023/05/25 01:23:10;;;;;;;8.57;7.87;;;16.40;99.90;;;;;;6275942;28;20513;-63
2023/05/25 01:26:17;;;;;;;8.30;7.50;;;16.40;99.90;;;;;;6276221;28;20478;-63
2023/05/25 01:29:22;;;;;;;9.17;8.27;;;16.40;99.90;;;;;;6276289;28;20466;-63
2023/05/25 01:32:27;;;;;;;8.73;7.97;;;16.40;99.90;;;;;;6276749;28;20454;-63
2023/05/25 01:35:31;;;;;;;9.77;8.93;;;16.40;99.90;;;;;;6276469;28;20458;-63
2023/05/25 01:38:37;;;;;;;9.70;8.80;;;16.30;99.90;;;;;;6275757;28;20466;-63
2023/05/25 01:41:40;;;;;;;8.90;8.00;;;16.20;99.90;;;;;;6275176;28;20965;-63
2023/05/25 01:44:44;;;;;;;9.30;8.50;;;16.30;99.90;;;;;;6275827;28;20476;-63
2023/05/25 01:47:57;;;;;;;10.00;9.10;;;16.20;99.90;;;;;;6275614;28;20587;-63
2023/05/25 01:51:06;;;;;;;9.00;7.90;;;16.20;99.90;;;;;;6276681;28;20481;-63
2023/05/25 01:54:17;;;;;;;8.80;8.00;;;16.20;99.90;;;;;;6275535;28;20474;-63
2023/05/25 01:57:22;;;;;;;9.37;8.60;;;16.20;99.90;;;;;;6275930;28;20482;-63
2023/05/25 02:00:30;;;;;;;12.30;9.33;;;16.20;99.90;;;;;;6274731;28;20470;-63
2023/05/25 02:03:33;;;;;;;11.10;10.07;;;16.10;99.90;;;;;;6274801;28;20467;-63
2023/05/25 02:06:36;;;;;;;10.63;9.40;;;16.10;99.90;;;;;;6274835;28;20484;-63
2023/05/25 02:09:41;;;;;;;11.83;10.70;;;16.00;99.90;;;;;;6275058;28;20549;-63
2023/05/25 02:12:44;;;;;;;13.30;11.10;;;16.00;99.90;;;;;;6274948;28;20481;-63
2023/05/25 02:15:47;;;;;;;12.23;10.93;;;15.90;99.90;;;;;;6275000;28;20958;-63
2023/05/25 02:18:51;;;;;;;12.33;10.50;;;15.90;99.90;;;;;;6274385;28;20993;-63
2023/05/25 02:21:54;;;;;;;10.63;9.63;;;15.90;99.90;;;;;;6270575;28;20883;-63
2023/05/25 02:24:58;;;;;;;10.57;9.50;;;15.90;99.90;;;;;;6274405;28;20995;-63
2023/05/25 02:28:01;;;;;;;12.23;10.87;;;15.80;99.90;;;;;;6274896;28;20561;-63
2023/05/25 02:31:07;;;;;;;11.83;10.73;;;15.80;99.90;;;;;;6274592;28;20480;-63
2023/05/25 02:34:12;;;;;;;16.90;11.90;;;15.70;99.90;;;;;;6274637;28;20681;-63
2023/05/25 02:37:15;;;;;;;12.80;10.67;;;15.70;99.90;;;;;;6274623;28;20470;-63
2023/05/25 02:40:20;;;;;;;10.77;9.70;;;15.60;99.90;;;;;;6274535;28;20549;-63
2023/05/25 02:43:23;;;;;;;11.63;9.80;;;15.60;99.90;;;;;;6274218;28;20480;-63
2023/05/25 02:46:26;;;;;;;10.23;9.07;;;15.50;99.90;;;;;;6274410;28;20483;-63
2023/05/25 02:49:33;;;;;;;12.70;9.23;;;15.50;99.90;;;;;;6274265;28;20474;-63
2023/05/25 02:52:36;;;;;;;10.23;8.47;;;15.50;99.90;;;;;;6274162;28;20480;-63
2023/05/25 02:55:42;;;;;;;11.57;8.57;;;15.50;99.90;;;;;;6274249;28;20488;-63
2023/05/25 02:58:45;;;;;;;9.30;8.30;;;15.50;99.90;;;;;;6274237;28;20470;-63
2023/05/25 03:01:48;;;;;;;9.33;7.37;;;15.40;99.90;;;;;;6275178;28;20466;-64
2023/05/25 03:04:52;;;;;;;8.60;7.70;;;15.40;99.90;;;;;;6274891;28;20474;-63
2023/05/25 03:07:55;;;;;;;8.20;7.23;;;15.40;99.90;;;;;;6278265;28;20482;-63
2023/05/25 03:11:00;;;;;;;7.43;6.07;;;15.40;99.90;;;;;;6276827;28;20592;-64
2023/05/25 03:14:03;;;;;;;6.73;6.13;;;15.30;99.90;;;;;;6278514;28;20948;-63
2023/05/25 03:17:06;;;;;;;7.53;6.60;;;15.30;99.90;;;;;;6279069;28;20442;-63
2023/05/25 03:20:11;;;;;;;6.70;6.20;;;15.20;99.90;;;;;;6279247;28;20488;-63
2023/05/25 03:23:14;;;;;;;6.80;6.20;;;15.20;99.90;;;;;;6279061;28;20979;-64
2023/05/25 03:26:19;;;;;;;7.93;6.47;;;15.20;99.90;;;;;;6279036;28;20513;-63
2023/05/25 03:29:22;;;;;;;5.83;5.40;;;15.20;99.90;;;;;;6278996;28;20493;-63
2023/05/25 03:32:25;;;;;;;7.43;6.73;;;15.10;99.90;;;;;;6278520;28;20458;-63
2023/05/25 03:35:28;;;;;;;7.30;6.60;;;15.10;99.90;;;;;;6278828;28;20551;-63
2023/05/25 03:38:31;;;;;;;7.43;6.83;;;15.10;99.90;;;;;;6278407;28;20477;-63
2023/05/25 03:41:36;;;;;;;6.60;6.00;;;15.10;99.90;;;;;;6278023;28;20482;-63
2023/05/25 03:44:39;;;;;;;6.90;6.30;;;15.10;99.90;;;;;;6277616;28;20473;-63
2023/05/25 03:47:44;;;;;;;7.47;6.67;;;15.10;99.90;;;;;;6278534;28;20545;-63
2023/05/25 03:50:47;;;;;;;7.23;6.27;;;15.10;99.90;;;;;;6278016;28;20945;-63
2023/05/25 03:53:50;;;;;;;6.47;5.87;;;15.10;99.90;;;;;;6278214;28;20474;-63
2023/05/25 03:56:55;;;;;;;6.03;5.50;;;15.10;99.90;;;;;;6278198;28;20470;-64
2023/05/25 03:59:58;;;;;;;6.63;5.83;;;15.10;99.90;;;;;;6278178;28;20481;-63
2023/05/25 04:03:01;;;;;;;5.70;5.20;;;15.10;99.90;;;;;;6278403;28;20462;-63
2023/05/25 04:06:05;;;;;;;6.80;6.10;;;15.10;99.90;;;;;;6277893;28;20934;-64
2023/05/25 04:09:08;;;;;;;7.17;6.47;;;15.10;99.90;;;;;;6277874;28;20773;-62
2023/05/25 04:12:13;;;;;;;6.80;6.20;;;15.10;99.90;;;;;;6277631;28;20478;-62
2023/05/25 04:15:16;;;;;;;4.90;4.50;;;15.20;99.90;;;;;;6277669;28;20804;-62
2023/05/25 04:18:19;;;;;;;7.10;6.50;;;15.20;99.90;;;;;;6277503;28;20474;-62
2023/05/25 04:21:23;;;;;;;6.77;6.17;;;15.20;99.90;;;;;;6277131;28;20511;-62
2023/05/25 04:24:26;;;;;;;7.73;6.93;;;15.30;99.90;;;;;;6276530;28;20473;-62
2023/05/25 04:27:31;;;;;;;8.07;7.37;;;15.40;99.90;;;;;;6277476;28;20470;-62
2023/05/25 04:30:35;;;;;;;8.60;7.33;;;15.50;99.90;;;;;;6272464;28;20478;-62
2023/05/25 04:33:39;;;;;;;7.90;7.17;;;15.50;99.90;;;;;;6277302;28;20478;-62
2023/05/25 04:36:43;;;;;;;9.00;8.17;;;15.60;99.90;;;;;;6277347;28;20547;-62
2023/05/25 04:39:46;;;;;;;10.37;8.40;;;15.60;99.90;;;;;;6276776;28;20482;-62
2023/05/25 04:42:52;;;;;;;8.97;8.07;;;15.70;99.90;;;;;;6276836;28;20473;-62
2023/05/25 04:45:56;;;;;;;7.93;7.23;;;15.70;99.90;;;;;;6277088;28;20462;-62
2023/05/25 04:48:59;;;;;;;7.40;6.67;;;15.80;99.90;;;;;;6276708;28;20814;-62
2023/05/25 04:52:03;;;;;;;7.37;6.63;;;15.90;99.90;;;;;;6276589;28;20926;-62
2023/05/25 04:55:07;;;;;;;7.47;6.77;;;15.90;99.90;;;;;;6276747;28;20470;-62
2023/05/25 04:58:12;;;;;;;7.10;6.40;;;16.00;99.90;;;;;;6276841;28;20462;-62
2023/05/25 05:01:16;;;;;;;8.40;7.70;;;16.10;99.90;;;;;;6276744;28;20470;-63
2023/05/25 05:04:19;;;;;;;8.63;7.73;;;16.20;99.90;;;;;;6276826;28;20485;-63
2023/05/25 05:07:23;;;;;;;8.10;7.30;;;16.30;99.90;;;;;;6276295;28;20815;-62
2023/05/25 05:10:26;;;;;;;8.40;7.67;;;16.30;99.90;;;;;;6276172;28;20489;-62
2023/05/25 05:13:30;;;;;;;7.60;6.90;;;16.40;99.90;;;;;;6276558;28;20462;-62
2023/05/25 05:16:34;;;;;;;8.50;7.70;;;16.50;99.90;;;;;;6276082;28;20466;-62
2023/05/25 05:19:37;;;;;;;9.87;8.87;;;16.60;99.90;;;;;;6276006;28;20478;-62
2023/05/25 05:22:41;;;;;;;9.00;7.97;;;16.70;99.90;;;;;;6276051;28;20500;-62
2023/05/25 05:25:45;;;;;;;8.07;7.27;;;16.70;99.90;;;;;;6276080;28;20470;-62
2023/05/25 05:28:51;;;;;;;7.70;6.90;;;16.80;99.90;;;;;;6275743;28;20478;-63
2023/05/25 05:31:55;;;;;;;8.93;8.07;;;16.90;99.90;;;;;;6275874;28;20484;-63
2023/05/25 05:34:58;;;;;;;9.70;8.80;;;17.00;99.90;;;;;;6275656;28;20973;-62
2023/05/25 05:38:01;;;;;;;7.87;7.00;;;17.10;99.90;;;;;;6274766;28;20480;-62
2023/05/25 05:41:10;;;;;;;8.43;7.57;;;17.30;99.90;;;;;;6275239;28;21000;-62
2023/05/25 05:44:14;;;;;;;8.70;6.87;;;17.60;99.90;;;;;;6275294;28;20875;-62
2023/05/25 05:47:17;;;;;;;7.50;6.77;;;17.80;99.90;;;;;;6275488;28;20758;-62
2023/05/25 05:50:21;;;;;;;11.03;8.03;;;17.80;99.90;;;;;;6275026;28;20497;-62
2023/05/25 05:53:24;;;;;;;8.03;7.27;;;17.90;99.90;;;;;;6275051;28;20536;-62
2023/05/25 05:56:27;;;;;;;7.03;6.43;;;18.00;99.90;;;;;;6275441;28;20918;-62
2023/05/25 05:59:32;;;;;;;6.17;5.50;;;18.10;99.90;;;;;;6275401;28;20470;-62
2023/05/25 06:02:35;;;;;;;6.80;6.23;;;18.40;99.90;;;;;;6275652;28;20232;-62
2023/05/25 06:05:42;;;;;;;6.67;6.10;;;18.60;99.90;;;;;;6275456;28;20611;-62
2023/05/25 06:08:46;;;;;;;8.27;7.57;;;18.90;99.90;;;;;;6275385;28;20469;-62
2023/05/25 06:11:50;;;;;;;8.17;7.47;;;19.30;99.90;;;;;;6275316;28;20224;-62
2023/05/25 06:14:54;;;;;;;7.47;6.60;;;19.60;99.90;;;;;;6274886;28;20227;-62
2023/05/25 06:17:58;;;;;;;6.77;6.17;;;19.80;99.90;;;;;;6274960;28;20223;-62
2023/05/25 06:21:01;;;;;;;6.10;5.70;;;20.10;99.90;;;;;;6274607;28;20227;-62
2023/05/25 06:24:05;;;;;;;9.13;6.30;;;20.60;99.90;;;;;;6274961;28;20232;-63
2023/05/25 06:27:09;;;;;;;7.57;5.73;;;21.10;99.90;;;;;;6274315;28;20224;-63
2023/05/25 06:30:14;;;;;;;5.77;5.27;;;21.00;99.90;;;;;;6273771;28;20231;-63
2023/05/25 06:33:17;;;;;;;6.00;5.50;;;21.60;99.90;;;;;;6267877;28;20251;-63
2023/05/25 06:36:20;;;;;;;5.60;5.10;;;22.70;99.90;;;;;;6274154;28;20353;-63
2023/05/25 06:39:23;;;;;;;6.40;5.90;;;23.40;99.90;;;;;;6264942;28;20330;-63
2023/05/25 06:42:27;;;;;;;5.87;5.37;;;23.20;99.90;;;;;;6273923;28;20215;-63
2023/05/25 06:45:31;;;;;;;5.13;4.73;;;24.10;99.90;;;;;;6273985;28;20692;-63
2023/05/25 06:48:34;;;;;;;6.17;5.57;;;23.90;98.70;;;;;;6271042;28;20242;-63
2023/05/25 06:51:38;;;;;;;7.17;6.57;;;24.10;99.10;;;;;;6274335;28;20245;-63
2023/05/25 06:54:41;;;;;;;7.03;6.43;;;24.10;98.20;;;;;;6274643;28;20241;-63
2023/05/25 06:57:44;;;;;;;6.50;5.90;;;23.20;98.20;;;;;;6273557;28;20219;-63
2023/05/25 07:00:49;;;;;;;7.60;6.83;;;23.10;99.70;;;;;;6273907;28;20588;-63
2023/05/25 07:03:55;;;;;;;6.60;6.10;;;22.70;99.30;;;;;;6272980;28;20680;-63
2023/05/25 07:06:58;;;;;;;7.43;6.73;;;22.00;99.90;;;;;;6273667;28;20717;-63
2023/05/25 07:10:03;;;;;;;7.53;6.83;;;21.50;99.90;;;;;;6273474;28;20234;-63
2023/05/25 07:13:06;;;;;;;7.30;6.70;;;21.40;99.90;;;;;;6271237;28;20541;-63
2023/05/25 07:16:12;;;;;;;6.10;5.60;;;22.10;99.90;;;;;;6273463;28;20238;-63
2023/05/25 07:19:15;;;;;;;6.93;6.33;;;24.20;99.70;;;;;;6274050;28;20239;-63
2023/05/25 07:22:18;;;;;;;7.50;6.80;;;25.20;97.20;;;;;;6274033;28;20284;-63
2023/05/25 07:25:21;;;;;;;7.00;6.50;;;27.20;93.60;;;;;;6274433;28;20226;-68
2023/05/25 07:28:24;;;;;;;7.10;6.43;;;27.10;92.20;;;;;;6273810;28;20634;-68
2023/05/25 07:31:29;;;;;;;7.10;6.50;;;27.00;90.50;;;;;;6273473;28;20241;-69
2023/05/25 07:34:33;;;;;;;9.00;7.40;;;26.40;91.20;;;;;;6271046;28;20306;-68
2023/05/25 07:37:36;;;;;;;7.17;6.57;;;26.40;91.20;;;;;;6270982;28;20215;-68
2023/05/25 07:40:39;;;;;;;7.63;6.87;;;28.50;90.30;;;;;;6274261;28;20674;-69
2023/05/25 07:43:43;;;;;;;6.97;6.47;;;30.70;82.30;;;;;;6264288;28;20233;-69
2023/05/25 07:46:47;;;;;;;6.63;6.13;;;30.90;72.30;;;;;;6272755;28;20247;-70
2023/05/25 07:49:50;;;;;;;8.13;7.00;;;31.30;70.70;;;;;;6272835;28;20236;-68
2023/05/25 07:52:53;;;;;;;7.05;6.55;;;31.70;65.80;;;;;;6273116;28;20234;-68
2023/05/25 07:55:57;;;;;;;6.95;6.35;;;32.20;65.30;;;;;;6273044;28;20230;-69
2023/05/25 07:59:00;;;;;;;6.75;6.00;;;32.90;62.30;;;;;;6273692;28;20247;-70
2023/05/25 08:02:05;;;;;;;7.13;6.60;;;33.00;58.90;;;;;;6277776;28;20227;-69
2023/05/25 08:05:09;;;;;;;9.07;7.28;;;32.70;58.60;;;;;;6277901;28;20312;-68
2023/05/25 08:08:13;;;;;;;8.07;7.38;;;32.40;58.60;;;;;;6277740;28;20288;-68
2023/05/25 08:11:17;;;;;;;8.10;6.20;;;32.00;59.10;;;;;;6277291;28;20227;-68
2023/05/25 08:14:22;;;;;;;8.07;7.28;;;31.70;60.60;;;;;;6277032;28;20637;-68
2023/05/25 08:17:26;;;;;;;8.93;8.18;;;31.20;60.00;;;;;;6277092;28;20592;-68
2023/05/25 08:20:31;;;;;;;7.40;6.90;;;30.40;61.10;;;;;;6281014;28;20234;-69
2023/05/25 08:23:34;;;;;;;8.00;7.40;;;29.30;63.70;;;;;;6276983;28;20223;-67
2023/05/25 08:26:39;;;;;;;7.60;6.90;;;28.60;64.60;;;;;;6276970;28;20230;-66
2023/05/25 08:29:56;;;;;;;8.77;7.80;;;28.20;67.00;;;;;;6277594;28;20349;-64
2023/05/25 08:33:00;;;;;;;7.80;7.20;;;27.80;68.70;;;;;;6276692;28;20245;-64
2023/05/25 08:36:04;;;;;;;8.40;7.77;;;27.20;71.30;;;;;;6277166;28;20686;-63
2023/05/25 08:39:08;;;;;;;8.57;7.67;;;26.80;72.30;;;;;;6277260;28;20580;-63
2023/05/25 08:42:11;;;;;;;7.57;6.97;;;26.10;74.50;;;;;;6277402;28;20245;-63
2023/05/25 08:45:14;;;;;;;7.40;6.80;;;26.00;74.40;;;;;;6276083;28;20632;-65
2023/05/25 08:48:38;;;;;;;7.07;6.47;;;25.50;76.10;;;;;;6276565;28;20219;-66
2023/05/25 08:51:49;;;;;;;7.10;6.50;;;25.50;77.50;;;;;;6276268;28;20219;-67
2023/05/25 08:54:55;;;;;;;6.27;5.77;;;25.50;77.10;;;;;;6276303;28;20222;-66
2023/05/25 08:58:02;;;;;;;6.87;6.30;;;25.40;78.50;;;;;;6276636;28;20305;-64
2023/05/25 09:01:08;;;;;;;6.03;5.57;;;25.30;78.40;;;;;;6276788;28;20239;-64
2023/05/25 09:04:13;;;;;;;6.63;6.03;;;25.30;78.50;;;;;;6276844;28;20227;-64
2023/05/25 09:07:17;;;;;;;6.80;6.00;;;25.30;74.80;;;;;;6276599;28;20234;-67
2023/05/25 09:10:22;;;;;;;6.53;5.93;;;25.20;75.90;;;;;;6276021;28;20290;-67
2023/05/25 09:13:26;;;;;;;7.27;6.63;;;25.30;77.40;;;;;;6276123;28;20231;-67
2023/05/25 09:16:31;;;;;;;6.80;6.03;;;25.50;76.90;;;;;;6276276;28;20309;-67
2023/05/25 09:19:37;;;;;;;6.50;5.90;;;25.60;76.20;;;;;;6275498;28;20239;-67
2023/05/25 09:22:41;;;;;;;5.50;5.10;;;25.70;75.50;;;;;;6276021;28;20238;-66
2023/05/25 09:25:46;;;;;;;6.73;6.03;;;25.80;76.20;;;;;;6275607;28;20311;-67
2023/05/25 09:28:49;;;;;;;7.77;6.27;;;26.00;76.20;;;;;;6275303;28;20239;-66
2023/05/25 09:31:53;;;;;;;7.37;5.77;;;25.80;77.70;;;;;;6275401;28;20233;-65
2023/05/25 09:35:07;;;;;;;8.90;5.83;;;26.10;77.00;;;;;;6274710;28;20253;-65
2023/05/25 09:38:12;;;;;;;6.53;5.20;;;26.30;75.70;;;;;;6273896;28;20301;-65
2023/05/25 09:41:16;;;;;;;5.83;5.23;;;26.30;74.60;;;;;;6274986;28;20748;-66
2023/05/25 09:44:19;;;;;;;6.50;5.83;;;26.10;74.80;;;;;;6275113;28;20206;-65
2023/05/25 09:47:23;;;;;;;6.23;5.73;;;26.00;73.80;;;;;;6271013;28;20241;-65
2023/05/25 09:50:29;;;;;;;6.70;5.93;;;26.10;73.40;;;;;;6275246;28;20297;-65
2023/05/25 09:53:32;;;;;;;5.80;5.30;;;26.30;73.50;;;;;;6275778;28;20230;-65
2023/05/25 09:56:36;;;;;;;5.60;5.10;;;26.50;71.50;;;;;;6275743;28;20222;-65
2023/05/25 09:59:39;;;;;;;5.60;5.10;;;26.30;72.00;;;;;;6275052;28;20549;-66
2023/05/25 10:02:42;;;;;;;6.00;5.50;;;26.50;73.20;;;;;;6275326;28;20233;-65
2023/05/25 10:05:47;;;;;;;6.20;5.70;;;26.50;73.00;;;;;;6274953;28;20230;-66
2023/05/25 10:08:52;;;;;;;6.63;6.13;;;26.50;72.70;;;;;;6274913;28;20237;-66
2023/05/25 10:11:57;;;;;;;7.97;6.20;;;26.40;72.70;;;;;;6275205;28;20219;-66
2023/05/25 10:15:03;;;;;;;5.73;5.23;;;26.10;72.90;;;;;;6274736;28;20545;-66
2023/05/25 10:18:09;;;;;;;6.07;5.53;;;25.50;74.40;;;;;;6274692;28;20233;-66
2023/05/25 10:21:17;;;;;;;5.67;5.27;;;25.50;74.00;;;;;;6274707;28;20269;-66
2023/05/25 10:24:26;;;;;;;6.57;5.97;;;25.70;73.80;;;;;;6274149;28;20683;-66
2023/05/25 10:27:34;;;;;;;6.03;5.40;;;25.50;74.10;;;;;;6274677;28;20227;-65
2023/05/25 10:30:42;;;;;;;6.50;5.50;;;26.00;73.90;;;;;;6275737;28;20227;-65
2023/05/25 10:33:47;;;;;;;6.40;5.90;;;26.30;72.60;;;;;;6277501;28;20237;-65
2023/05/25 10:36:57;;;;;;;5.87;5.33;;;26.20;72.80;;;;;;6275042;28;20238;-65
2023/05/25 10:40:01;;;;;;;6.73;6.23;;;26.10;72.30;;;;;;6274677;28;20235;-66
2023/05/25 10:43:06;;;;;;;5.40;5.00;;;26.20;71.90;;;;;;6274403;28;20222;-66
2023/05/25 10:46:10;;;;;;;6.17;5.57;;;26.50;72.00;;;;;;6274238;28;20238;-66
2023/05/25 10:49:14;;;;;;;6.50;6.00;;;26.90;72.20;;;;;;6273887;28;20222;-66
2023/05/25 10:52:19;;;;;;;6.20;5.70;;;26.80;71.40;;;;;;6274053;28;20234;-65
2023/05/25 10:55:26;;;;;;;6.53;5.93;;;26.90;70.40;;;;;;6274013;28;20222;-65
2023/05/25 10:58:31;;;;;;;6.60;6.00;;;27.20;71.90;;;;;;6273579;28;20273;-66
2023/05/25 11:01:50;;;;;;;6.23;5.83;;;27.50;69.30;;;;;;6272886;28;20218;-68
2023/05/25 11:05:31;;;;;;;6.20;5.27;;;27.50;68.30;;;;;;6272918;28;20353;-65
2023/05/25 11:08:51;;;;;;;5.93;5.33;;;27.50;69.00;;;;;;6273231;28;20302;-65
2023/05/25 11:12:02;;;;;;;6.40;5.90;;;27.60;71.70;;;;;;6271352;28;20667;-66
2023/05/25 11:15:15;;;;;;;6.23;5.73;;;27.80;69.30;;;;;;6271922;28;20229;-64
2023/05/25 11:18:18;;;;;;;6.10;5.70;;;27.80;69.10;;;;;;6270558;28;20265;-65
2023/05/25 11:21:43;;;;;;;6.43;5.93;;;27.70;68.50;;;;;;6272429;28;20249;-66
2023/05/25 11:24:48;;;;;;;6.83;6.23;;;27.40;70.40;;;;;;6272080;28;20219;-66
2023/05/25 11:27:53;;;;;;;8.03;5.90;;;27.20;69.30;;;;;;6270675;28;20219;-66
2023/05/25 11:30:56;;;;;;;6.80;6.10;;;27.00;69.10;;;;;;6272225;28;20288;-66
2023/05/25 11:34:01;;;;;;;6.30;5.70;;;26.50;69.80;;;;;;6271148;28;20230;-66
2023/05/25 11:37:04;;;;;;;7.33;6.73;;;26.80;71.30;;;;;;6277315;28;20219;-67
2023/05/25 11:40:10;;;;;;;6.67;6.07;;;26.80;69.40;;;;;;6277888;28;20235;-66
2023/05/25 11:43:15;;;;;;;6.90;6.30;;;26.40;71.10;;;;;;6277924;28;20223;-68
2023/05/25 11:46:21;;;;;;;7.13;6.60;;;26.50;73.80;;;;;;6278518;28;20249;-67
2023/05/25 11:49:24;;;;;;;7.67;5.90;;;26.60;71.30;;;;;;6277487;28;20222;-67
2023/05/25 11:52:28;;;;;;;7.40;6.80;;;26.60;71.50;;;;;;6278309;28;20226;-67
2023/05/25 11:55:33;;;;;;;7.13;6.60;;;26.40;70.60;;;;;;6277205;28;20537;-65
2023/05/25 11:58:36;;;;;;;11.07;6.50;;;26.40;72.20;;;;;;6267799;28;20365;-66
2023/05/25 12:01:40;;;;;;;7.10;6.40;;;26.60;71.90;;;;;;6277489;28;20730;-66
2023/05/25 12:04:53;;;;;;;11.33;6.90;;;26.80;71.50;;;;;;6278127;28;20233;-66
2023/05/25 12:07:57;;;;;;;7.10;6.50;;;27.00;70.20;;;;;;6278054;28;20257;-67
2023/05/25 12:11:04;;;;;;;6.20;5.70;;;26.80;69.50;;;;;;6277280;28;20223;-65
2023/05/25 12:14:08;;;;;;;7.23;6.40;;;26.90;70.30;;;;;;6277257;28;20219;-66
2023/05/25 12:17:11;;;;;;;6.50;6.00;;;27.20;69.70;;;;;;6277640;28;20203;-67
2023/05/25 12:20:17;;;;;;;6.33;5.83;;;27.20;69.50;;;;;;6277087;28;20596;-66
2023/05/25 12:23:20;;;;;;;7.20;6.60;;;27.00;69.20;;;;;;6277722;28;20214;-65
2023/05/25 12:26:25;;;;;;;6.70;6.10;;;26.80;70.10;;;;;;6277534;28;20206;-65
2023/05/25 12:29:29;;;;;;;7.13;6.50;;;26.60;70.80;;;;;;6277554;28;20235;-66
2023/05/25 12:32:32;;;;;;;6.93;6.33;;;26.70;70.70;;;;;;6277107;28;20722;-68
2023/05/25 12:35:46;;;;;;;7.63;6.57;;;26.50;70.70;;;;;;6276468;28;20302;-65
2023/05/25 12:38:58;;;;;;;6.93;6.30;;;26.30;69.80;;;;;;6275877;28;20795;-65
2023/05/25 12:42:03;;;;;;;7.17;6.63;;;26.40;71.00;;;;;;6275878;28;20223;-65
2023/05/25 12:45:08;;;;;;;7.57;6.90;;;26.60;70.90;;;;;;6274875;28;20489;-66
2023/05/25 12:48:11;;;;;;;6.20;5.60;;;26.60;70.60;;;;;;6276610;28;20242;-65
2023/05/25 12:51:14;;;;;;;7.43;6.80;;;26.20;71.60;;;;;;6276329;28;20231;-65
2023/05/25 12:54:32;;;;;;;7.30;6.70;;;26.00;71.20;;;;;;6276031;28;20272;-65
2023/05/25 12:57:37;;;;;;;6.83;6.33;;;26.20;71.20;;;;;;6276389;28;20663;-65
2023/05/25 13:00:40;;;;;;;7.37;6.77;;;26.20;70.70;;;;;;6267454;28;20235;-65
2023/05/25 13:03:44;;;;;;;7.23;6.63;;;26.40;71.30;;;;;;6276223;28;20300;-65
2023/05/25 13:06:47;;;;;;;7.50;6.87;;;26.30;70.70;;;;;;6276232;28;20307;-65
2023/05/25 13:09:50;;;;;;;6.83;6.30;;;26.30;70.70;;;;;;6276049;28;20231;-65
2023/05/25 13:12:57;;;;;;;6.80;6.10;;;26.50;69.80;;;;;;6275478;28;20364;-65
2023/05/25 13:16:00;;;;;;;6.90;5.90;;;26.50;70.00;;;;;;6276311;28;20231;-65
2023/05/25 13:19:03;;;;;;;6.90;6.40;;;26.50;69.30;;;;;;6275929;28;20234;-65
2023/05/25 13:22:06;;;;;;;7.20;6.50;;;26.40;69.50;;;;;;6275775;28;20227;-65
2023/05/25 13:25:10;;;;;;;6.50;6.00;;;26.30;69.80;;;;;;6275541;28;20683;-65
2023/05/25 13:28:15;;;;;;;7.33;6.80;;;26.20;69.80;;;;;;6277960;28;20255;-65
2023/05/25 13:31:18;;;;;;;7.20;6.60;;;25.90;71.10;;;;;;6277616;28;20231;-66
2023/05/25 13:34:21;;;;;;;6.50;6.00;;;25.90;72.20;;;;;;6275829;28;20231;-64
2023/05/25 13:37:25;;;;;;;7.00;6.17;;;25.50;72.10;;;;;;6268168;28;20230;-67
2023/05/25 13:40:28;;;;;;;6.60;6.00;;;25.40;73.50;;;;;;6257835;28;20360;-65
2023/05/25 13:43:33;;;;;;;6.77;6.23;;;25.50;73.20;;;;;;6275494;28;20569;-66
2023/05/25 13:46:36;;;;;;;6.90;6.40;;;25.50;73.30;;;;;;6274886;28;20237;-66
2023/05/25 13:49:39;;;;;;;6.80;6.30;;;25.60;72.00;;;;;;6275765;28;20227;-66
2023/05/25 13:52:42;;;;;;;7.07;6.37;;;25.60;72.90;;;;;;6275666;28;20693;-66
2023/05/25 13:55:46;;;;;;;6.27;5.77;;;25.70;71.40;;;;;;6275624;28;20241;-66
2023/05/25 13:58:51;;;;;;;6.67;6.17;;;25.90;71.60;;;;;;6274565;28;20230;-67
2023/05/25 14:01:55;;;;;;;9.47;6.40;;;25.90;71.60;;;;;;6274945;28;20348;-64
2023/05/25 14:04:58;;;;;;;7.03;6.40;;;25.90;71.60;;;;;;6265992;28;20296;-63
2023/05/25 14:08:03;;;;;;;6.87;6.20;;;25.80;71.80;;;;;;6274365;28;20310;-62
2023/05/25 14:11:06;;;;;;;7.60;6.90;;;25.80;71.60;;;;;;6274234;28;20577;-62
2023/05/25 14:14:11;;;;;;;7.53;6.80;;;25.70;71.50;;;;;;6274367;28;20308;-62
2023/05/25 14:17:29;;;;;;;6.90;6.30;;;25.70;71.60;;;;;;6274572;28;20223;-62
2023/05/25 14:20:35;;;;;;;7.40;6.67;;;25.80;71.60;;;;;;6274506;28;20230;-62
2023/05/25 14:23:39;;;;;;;6.90;6.30;;;25.70;71.10;;;;;;6275076;28;20234;-63
2023/05/25 14:26:42;;;;;;;7.13;6.53;;;25.50;72.30;;;;;;6274592;28;20396;-62
2023/05/25 14:29:47;;;;;;;7.53;6.47;;;25.70;72.60;;;;;;6274411;28;20238;-63
2023/05/25 14:32:50;;;;;;;6.50;5.90;;;25.80;72.00;;;;;;6274252;28;20231;-63
2023/05/25 14:35:54;;;;;;;6.57;6.07;;;25.80;72.20;;;;;;6275015;28;20233;-64
2023/05/25 14:38:57;;;;;;;7.23;6.63;;;25.80;72.20;;;;;;6274945;28;20218;-64
2023/05/25 14:42:01;;;;;;;6.97;6.47;;;25.80;72.60;;;;;;6274316;28;20543;-64
2023/05/25 14:45:07;;;;;;;7.30;6.73;;;25.70;72.90;;;;;;6273576;28;20234;-64
2023/05/25 14:48:13;;;;;;;7.00;6.37;;;25.70;72.30;;;;;;6274259;28;20231;-64
2023/05/25 14:51:18;;;;;;;7.23;6.63;;;25.70;72.10;;;;;;6273952;28;20226;-64
2023/05/25 14:54:22;;;;;;;8.90;6.97;;;25.90;72.20;;;;;;6274365;28;20675;-65
2023/05/25 14:57:25;;;;;;;7.40;5.77;;;26.00;73.10;;;;;;6274020;28;20352;-65
2023/05/25 15:00:29;;;;;;;9.10;7.30;;;26.00;76.00;;;;;;6272538;28;20240;-66
2023/05/25 15:03:33;;;;;;;6.00;5.50;;;26.00;71.10;;;;;;6274238;28;20285;-64
2023/05/25 15:06:38;;;;;;;7.93;7.17;;;25.80;71.80;;;;;;6273794;28;20226;-63
2023/05/25 15:09:41;;;;;;;7.30;6.37;;;25.80;72.00;;;;;;6276822;28;20231;-63
2023/05/25 15:12:44;;;;;;;7.07;6.47;;;25.90;71.90;;;;;;6278870;28;20392;-64
2023/05/25 15:15:50;;;;;;;7.37;6.73;;;26.00;70.90;;;;;;6278822;28;20240;-64
2023/05/25 15:18:54;;;;;;;7.90;6.33;;;26.20;70.60;;;;;;6278496;28;20230;-64
2023/05/25 15:21:57;;;;;;;6.30;5.80;;;26.10;71.30;;;;;;6278767;28;20273;-64
2023/05/25 15:25:00;;;;;;;8.00;6.00;;;26.10;71.00;;;;;;6278408;28;20227;-64
2023/05/25 15:28:05;;;;;;;6.40;5.90;;;25.90;71.70;;;;;;6279100;28;20231;-64
2023/05/25 15:31:10;;;;;;;6.57;6.03;;;26.00;71.10;;;;;;6278412;28;20277;-64
2023/05/25 15:34:14;;;;;;;7.70;6.90;;;26.20;70.70;;;;;;6278584;28;20572;-70
2023/05/25 15:37:17;;;;;;;6.47;5.97;;;26.20;71.40;;;;;;6278339;28;20237;-65
2023/05/25 15:40:20;;;;;;;6.13;5.60;;;26.30;71.20;;;;;;6278519;28;20252;-63
2023/05/25 15:43:24;;;;;;;6.57;6.00;;;26.40;71.30;;;;;;6278255;28;20218;-63
2023/05/25 15:46:28;;;;;;;7.07;6.47;;;26.50;71.30;;;;;;6276321;28;20628;-65
2023/05/25 15:49:35;;;;;;;6.93;6.33;;;26.50;70.00;;;;;;6277661;28;20547;-64
2023/05/25 15:52:38;;;;;;;8.90;6.30;;;26.40;69.90;;;;;;6277480;28;20250;-64
2023/05/25 15:55:42;;;;;;;7.03;6.30;;;26.50;70.60;;;;;;6277767;28;20223;-64
2023/05/25 15:58:47;;;;;;;8.00;7.43;;;26.50;70.00;;;;;;6277611;28;20235;-64
2023/05/25 16:01:52;;;;;;;6.77;6.17;;;26.50;70.00;;;;;;6277890;28;20223;-64